Flight Track Log - Related Links

Times and Time Zones

All times are in EDT time to prevent confusion due to time zone crossing. See the JBU917 flight status page for this flight to view local times or setup timezone preferences in your user account.

Time Position Orientation Groundspeed Altitude Reporting Facility
EDT Latitude Longitude Course Direction KTS MPH feet Rate Location/Type
Thu 08:53:16 PM 40.6000 -73.8000 306° West 152 175 1,500  Level New TRACON
Thu 08:54:16 PM 40.5500 -73.7667 153° Southeast 228 262 3,200 1,350 Climbing New TRACON
Thu 08:55:00 PM 40.7852 -74.0537 304° West  Level FlightAware
Thu 08:55:16 PM 40.5833 -73.6833 62° Northeast 289 333 4,200  Level New TRACON
Thu 08:56:00 PM 40.8360 -74.1551 304° West  Level FlightAware
Thu 08:56:16 PM 40.6500 -73.6333 30° Northeast 278 320 7,500  Level New TRACON
Thu 08:57:00 PM 40.8880 -74.2556 306° West  Level FlightAware
Thu 08:57:16 PM 40.7167 -73.5833 30° Northeast 295 339 10,400  Level New TRACON
Thu 08:58:00 PM 40.9418 -74.3544 306° West  Level FlightAware
Thu 08:58:16 PM 40.7833 -73.5667 11° North 287 330 13,300  Level New TRACON
Thu 08:59:16 PM 40.8667 -73.6000 343° North 317 365 14,400 1,398 Climbing New TRACON
Thu 09:01:42 PM 40.9883 -73.8417 304° West 342 394 18,100 1,681 Climbing New Center
Thu 09:02:43 PM 41.0103 -73.9608 284° West 331 381 20,200 1,966 Climbing New Center
Thu 09:03:41 PM 41.0339 -74.0858 284° West 342 394 22,000 1,881 Climbing New Center
Thu 09:04:41 PM 41.0511 -74.2131 280° West 348 400 23,900 1,700 Climbing New Center
Thu 09:05:41 PM 41.0744 -74.3381 284° West 354 407 25,400 1,438 Climbing New Center
Thu 09:06:42 PM 41.0956 -74.4658 282° West 359 413 26,800 1,240 Climbing New Center
Thu 09:07:42 PM 41.1203 -74.6022 284° West 359 413 27,900 1,190 Climbing New Center
Thu 09:08:43 PM 41.1533 -74.7336 289° West 374 430 29,200 1,361 Climbing New Center
Thu 09:09:41 PM 41.2056 -74.8525 300° West 374 430 30,600 1,373 Climbing New Center
Thu 09:10:41 PM 41.2556 -74.9742 299° West 379 436 31,900 1,250 Climbing New Center
Thu 09:11:41 PM 41.3056 -75.0906 300° West 374 430 33,100 1,082 Climbing New Center
Thu 09:12:43 PM 41.3575 -75.2044 301° West 369 425 34,100 1,041 Climbing New Center
Thu 09:13:42 PM 41.4053 -75.3181 299° West 364 419 35,200 908 Climbing New Center
Thu 09:14:42 PM 41.4528 -75.4322 299° West 364 419 35,900 400 Climbing New Center
Thu 09:15:42 PM 41.4939 -75.5514 295° West 364 419 36,000 51 Climbing New Center
Thu 09:16:40 PM 41.5250 -75.6561 292° West 359 413 36,000  Level New Center
Thu 09:17:42 PM 41.5689 -75.8061 291° West 369 425 36,000  Level New Center
Thu 09:18:43 PM 41.6050 -75.9336 291° West 374 430 36,000  Level New Center
Thu 09:19:41 PM 41.6428 -76.0672 291° West 374 430 36,000  Level New Center
Thu 09:20:41 PM 41.6806 -76.1978 291° West 374 430 36,000  Level New Center
Thu 09:21:42 PM 41.7164 -76.3258 291° West 374 430 36,000  Level New Center
Thu 09:22:43 PM 41.7500 -76.4539 289° West 374 430 36,000  Level New Center
Thu 09:23:40 PM 41.7817 -76.5706 290° West 374 430 36,000  Level New Center
Thu 09:24:41 PM 41.8172 -76.6933 291° West 374 430 36,000  Level New Center
Thu 09:25:42 PM 41.8525 -76.8244 290° West 369 425 36,000  Level New Center
Thu 09:26:45 PM 41.8928 -76.9733 290° West 370 426 36,000  Level Cleveland Center
Thu 09:27:45 PM 41.9281 -77.0997 291° West 365 420 36,000  Level Cleveland Center
Thu 09:28:45 PM 41.9631 -77.2264 290° West 365 420 36,000  Level Cleveland Center
Thu 09:29:45 PM 41.9958 -77.3533 289° West 360 414 36,000  Level Cleveland Center
Thu 09:30:45 PM 42.0286 -77.4772 290° West 360 414 36,000  Level Cleveland Center
Thu 09:31:45 PM 42.0631 -77.6044 290° West 360 414 36,000  Level Cleveland Center
Thu 09:32:45 PM 42.0956 -77.7317 289° West 360 414 36,000  Level Cleveland Center
Thu 09:33:45 PM 42.1322 -77.8617 291° West 360 414 36,000  Level Cleveland Center
Thu 09:34:45 PM 42.1642 -77.9864 289° West 360 414 36,000  Level Cleveland Center
Thu 09:35:45 PM 42.1983 -78.1167 290° West 365 420 36,000 -100 Level Cleveland Center
Thu 09:36:45 PM 42.2322 -78.2500 289° West 365 420 35,800 -500 Descending Cleveland Center
Thu 09:37:45 PM 42.2661 -78.3778 290° West 365 420 35,000 -400 Descending Cleveland Center
Thu 09:38:45 PM 42.2978 -78.5114 288° West 365 420 35,000  Level Cleveland Center
Thu 09:39:45 PM 42.3314 -78.6425 289° West 365 420 35,000  Level Cleveland Center
Thu 09:40:45 PM 42.3667 -78.7706 290° West 365 420 35,000 -200 Level Cleveland Center
Thu 09:41:45 PM 42.3914 -78.8739 288° West 365 420 34,600 -500 Descending Cleveland Center
Thu 09:42:45 PM 42.4331 -79.0331 290° West 365 420 34,000 -300 Descending Cleveland Center
Thu 09:43:45 PM 42.4617 -79.1533 288° West 365 420 34,000  Level Cleveland Center
Thu 09:44:45 PM 42.4925 -79.2850 288° West 365 420 34,000  Level Cleveland Center
Thu 09:45:45 PM 42.5003 -79.4286 274° West 371 427 34,000  Level Cleveland Center
Thu 09:46:45 PM 42.5078 -79.5722 274° West 377 434 34,000  Level Cleveland Center
Thu 09:47:45 PM 42.5153 -79.7128 274° West 382 440 34,000  Level Cleveland Center
Thu 09:48:45 PM 42.5225 -79.8592 274° West 382 440 34,000  Level Cleveland Center
Thu 09:49:45 PM 42.5233 -80.0169 270° West 382 440 34,000  Level Cleveland Center
Thu 09:50:45 PM 42.5303 -80.1550 274° West 382 440 34,000  Level Cleveland Center
Thu 09:51:45 PM 42.5369 -80.3014 274° West 382 440 34,000  Level Cleveland Center
Thu 09:52:45 PM 42.5436 -80.4311 274° West 382 440 34,000  Level Cleveland Center
Thu 09:53:45 PM 42.5478 -80.5747 272° West 388 447 34,000  Level Cleveland Center
Thu 09:54:45 PM 42.5539 -80.7156 273° West 383 441 34,000  Level Cleveland Center
Thu 09:55:45 PM 42.5600 -80.8622 273° West 383 441 34,000  Level Cleveland Center
Thu 09:56:45 PM 42.5658 -81.0033 273° West 383 441 34,000  Level Cleveland Center
Thu 09:57:45 PM 42.5714 -81.1556 273° West 393 452 34,000  Level Cleveland Center
Thu 09:58:45 PM 42.5747 -81.2964 272° West 388 447 34,000  Level Cleveland Center
Thu 09:59:45 PM 42.5819 -81.4433 274° West 383 441 34,000  Level Cleveland Center
Thu 10:00:45 PM 42.6078 -81.5986 283° West 383 441 34,000  Level Cleveland Center
Thu 10:01:45 PM 42.6336 -81.7375 284° West 383 441 34,000  Level Cleveland Center
Thu 10:02:45 PM 42.6553 -81.8619 283° West 383 441 34,000  Level Cleveland Center
Thu 10:03:45 PM 42.6786 -82.0067 282° West 383 441 34,000  Level Cleveland Center
Thu 10:04:45 PM 42.7039 -82.1483 284° West 388 447 34,000  Level Cleveland Center
Thu 10:05:45 PM 42.7289 -82.2903 284° West 388 447 34,000  Level Cleveland Center
Thu 10:06:45 PM 42.7517 -82.4322 282° West 388 447 34,000  Level Cleveland Center
Thu 10:07:45 PM 42.7681 -82.5772 279° West 393 452 34,000  Level Cleveland Center
Thu 10:08:45 PM 42.7800 -82.7244 276° West 393 452 34,000  Level Cleveland Center
Thu 10:09:45 PM 42.7875 -82.8719 274° West 393 452 34,000  Level Cleveland Center
Thu 10:10:45 PM 42.7969 -83.0194 275° West 393 452 34,000  Level Cleveland Center
Thu 10:11:45 PM 42.8064 -83.1669 275° West 393 452 34,000  Level Cleveland Center
Thu 10:12:45 PM 42.8153 -83.3175 275° West 393 452 34,000  Level Cleveland Center
Thu 10:13:45 PM 42.8244 -83.4650 275° West 399 459 34,000  Level Cleveland Center
Thu 10:14:45 PM 42.8328 -83.6183 274° West 399 459 34,000 -650 Level Cleveland Center
Thu 10:15:45 PM 42.8414 -83.7689 275° West 405 466 32,700 -1,000 Descending Cleveland Center
Thu 10:16:45 PM 42.8475 -83.9192 273° West 405 466 32,000 -237 Descending Cleveland Center
Thu 10:18:42 PM 42.8675 -84.2283 275° West 406 467 32,000  Level Chicago Center
Thu 10:19:44 PM 42.8756 -84.3831 274° West 410 472 32,000  Level Chicago Center
Thu 10:20:45 PM 42.8836 -84.5364 274° West 408 470 32,000  Level Chicago Center
Thu 10:21:47 PM 42.8742 -84.6906 265° West 412 474 32,000  Level Chicago Center
Thu 10:22:48 PM 42.8569 -84.8439 261° West 410 472 32,000  Level Chicago Center
Thu 10:23:49 PM 42.8408 -84.9989 262° West 412 474 32,000  Level Chicago Center
Thu 10:24:51 PM 42.8239 -85.1531 262° West 412 474 32,000  Level Chicago Center
Thu 10:25:52 PM 42.8081 -85.3075 262° West 412 474 32,000 -885 Level Chicago Center
Thu 10:26:53 PM 42.7869 -85.4936 261° West 413 475 30,200 -1,854 Descending Chicago Center
Thu 10:27:55 PM 42.7600 -85.6472 257° West 415 478 28,200 -1,902 Descending Chicago Center
Thu 10:28:56 PM 42.7331 -85.7967 256° West 407 468 26,300 -1,854 Descending Chicago Center
Thu 10:29:58 PM 42.7064 -85.9394 256° West 391 450 24,400 -1,854 Descending Chicago Center
Thu 10:30:59 PM 42.6814 -86.0803 256° West 383 441 22,500 -1,820 Descending Chicago Center
Thu 10:32:00 PM 42.6567 -86.2169 256° West 374 430 20,700 -1,756 Descending Chicago Center
Thu 10:33:02 PM 42.6303 -86.3517 255° West 368 423 18,900 -1,561 Descending Chicago Center
Thu 10:34:03 PM 42.6056 -86.4850 256° West 364 419 17,500 -1,525 Descending Chicago Center
Thu 10:35:04 PM 42.5806 -86.6178 256° West 363 418 15,800 -1,561 Descending Chicago Center
Thu 10:36:06 PM 42.5556 -86.7475 255° West 357 411 14,300 -1,463 Descending Chicago Center
Thu 10:37:07 PM 42.5228 -86.8694 250° West 348 400 12,800 -1,561 Descending Chicago Center
Thu 10:38:09 PM 42.4828 -87.0100 249° West 337 388 11,100 -1,366 Descending Chicago Center
Thu 10:39:10 PM 42.4500 -87.1283 249° West 336 387 10,000 -541 Descending Chicago Center
Thu 10:40:11 PM 42.4181 -87.2431 249° West 329 379 10,000  Level Chicago Center
Thu 10:41:13 PM 42.3853 -87.3625 250° West 338 389 10,000  Level Chicago Center
Thu 10:42:14 PM 42.3514 -87.4878 250° West 336 387 10,000  Level Chicago Center
Thu 10:43:15 PM 42.2939 -87.5842 231° Southwest 344 396 10,000  Level Chicago Center
Thu 10:44:17 PM 42.2200 -87.6619 218° Southwest 340 391 10,000 -195 Level Chicago Center
Thu 10:45:18 PM 42.1506 -87.7347 218° Southwest 320 368 9,600 -934 Descending Chicago Center
Thu 10:46:19 PM 42.0956 -87.8033 223° Southwest 279 321 8,100 -1,615 Descending Chicago Center
Thu 10:46:36 PM 42.0833 -87.8500 251° West 272 313 7,500 -923 Descending Chicago TRACON
Thu 10:47:24 PM 42.0667 -87.9167 251° West 269 310 7,100 -235 Descending Chicago TRACON
Thu 10:48:18 PM 42.0500 -88.0000 255° West 252 290 7,100 -650 Level Chicago TRACON
Thu 10:49:24 PM 42.0500 -88.1000 270° West 219 252 5,800 -1,181 Descending Chicago TRACON
Thu 10:50:25 PM 42.0519 -88.1703 272° West 220 253 4,600 -885 Descending Chicago Center
Thu 10:51:26 PM 42.0058 -88.1797 189° South 181 208 4,000 -541 Descending Chicago Center
Thu 10:52:27 PM 41.9764 -88.1347 131° Southeast 189 217 3,500 -712 Descending Chicago Center
Thu 10:53:24 PM 41.9667 -88.0667 101° East 173 199 2,600 -865 Descending Chicago TRACON
Thu 10:54:18 PM 41.9667 -88.0167 90° East 139 160 1,900 -684 Descending Chicago TRACON
Thu 10:55:18 PM 41.9667 -87.9667 90° East 125 144 1,300 -600 Descending Chicago TRACON

Login

Don't have an account? Register now (free) for customized features, flight alerts, and more!